sensor_id;sensor_type;location;lat;lon;timestamp;temperature;humidity
4604;DHT22;2314;48.272;11.562;2023-07-30T00:00:11;17.00;99.90
4604;DHT22;2314;48.272;11.562;2023-07-30T00:02:38;16.90;99.90
4604;DHT22;2314;48.272;11.562;2023-07-30T00:05:07;16.90;99.90
4604;DHT22;2314;48.272;11.562;2023-07-30T00:07:34;16.80;99.90
4604;DHT22;2314;48.272;11.562;2023-07-30T00:10:01;16.80;99.90
4604;DHT22;2314;48.272;11.562;2023-07-30T00:12:28;16.70;99.90
4604;DHT22;2314;48.272;11.562;2023-07-30T00:14:55;16.70;99.90
4604;DHT22;2314;48.272;11.562;2023-07-30T00:17:22;16.70;99.90
4604;DHT22;2314;48.272;11.562;2023-07-30T00:19:49;16.70;99.90
4604;DHT22;2314;48.272;11.562;2023-07-30T00:22:17;16.70;99.90
4604;DHT22;2314;48.272;11.562;2023-07-30T00:24:44;16.70;99.90
4604;DHT22;2314;48.272;11.562;2023-07-30T00:27:11;16.70;99.90
4604;DHT22;2314;48.272;11.562;2023-07-30T00:29:38;16.80;99.90
4604;DHT22;2314;48.272;11.562;2023-07-30T00:32:05;16.80;99.90
4604;DHT22;2314;48.272;11.562;2023-07-30T00:34:33;16.80;99.90
4604;DHT22;2314;48.272;11.562;2023-07-30T00:37:00;16.80;99.90
4604;DHT22;2314;48.272;11.562;2023-07-30T00:39:28;16.80;99.90
4604;DHT22;2314;48.272;11.562;2023-07-30T00:41:55;16.80;99.90
4604;DHT22;2314;48.272;11.562;2023-07-30T00:44:22;16.80;99.90
4604;DHT22;2314;48.272;11.562;2023-07-30T00:46:49;16.90;99.90
4604;DHT22;2314;48.272;11.562;2023-07-30T00:49:16;16.90;99.90
4604;DHT22;2314;48.272;11.562;2023-07-30T00:51:44;16.90;99.90
4604;DHT22;2314;48.272;11.562;2023-07-30T00:54:11;16.90;99.90
4604;DHT22;2314;48.272;11.562;2023-07-30T00:56:44;17.00;99.90
4604;DHT22;2314;48.272;11.562;2023-07-30T00:59:15;17.00;99.90
4604;DHT22;2314;48.272;11.562;2023-07-30T01:01:43;17.00;99.90
4604;DHT22;2314;48.272;11.562;2023-07-30T01:04:13;17.00;99.90
4604;DHT22;2314;48.272;11.562;2023-07-30T01:06:40;17.00;99.90
4604;DHT22;2314;48.272;11.562;2023-07-30T01:09:07;17.10;99.90
4604;DHT22;2314;48.272;11.562;2023-07-30T01:11:35;17.10;99.90
4604;DHT22;2314;48.272;11.562;2023-07-30T01:14:04;17.10;99.90
4604;DHT22;2314;48.272;11.562;2023-07-30T01:16:32;17.10;99.90
4604;DHT22;2314;48.272;11.562;2023-07-30T01:18:59;17.10;99.90
4604;DHT22;2314;48.272;11.562;2023-07-30T01:21:31;17.10;99.90
4604;DHT22;2314;48.272;11.562;2023-07-30T01:23:58;17.20;99.90
4604;DHT22;2314;48.272;11.562;2023-07-30T01:26:32;17.20;99.90
4604;DHT22;2314;48.272;11.562;2023-07-30T01:29:02;17.20;99.90
4604;DHT22;2314;48.272;11.562;2023-07-30T01:31:31;17.20;99.90
4604;DHT22;2314;48.272;11.562;2023-07-30T01:34:01;17.30;99.90
4604;DHT22;2314;48.272;11.562;2023-07-30T01:36:32;17.30;99.90
4604;DHT22;2314;48.272;11.562;2023-07-30T01:38:59;17.20;99.90
4604;DHT22;2314;48.272;11.562;2023-07-30T01:41:27;17.30;99.90
4604;DHT22;2314;48.272;11.562;2023-07-30T01:43:54;17.20;99.90
4604;DHT22;2314;48.272;11.562;2023-07-30T01:46:21;17.10;99.90
4604;DHT22;2314;48.272;11.562;2023-07-30T01:49:46;17.10;99.90
4604;DHT22;2314;48.272;11.562;2023-07-30T01:53:15;17.20;99.90
4604;DHT22;2314;48.272;11.562;2023-07-30T01:56:41;17.20;99.90
4604;DHT22;2314;48.272;11.562;2023-07-30T02:00:07;17.20;99.90
4604;DHT22;2314;48.272;11.562;2023-07-30T02:03:32;17.30;99.90
4604;DHT22;2314;48.272;11.562;2023-07-30T02:06:58;17.30;99.90
4604;DHT22;2314;48.272;11.562;2023-07-30T02:10:25;17.30;99.90
4604;DHT22;2314;48.272;11.562;2023-07-30T02:13:51;17.30;99.90
4604;DHT22;2314;48.272;11.562;2023-07-30T02:17:16;17.30;99.90
4604;DHT22;2314;48.272;11.562;2023-07-30T02:20:42;17.10;99.90
4604;DHT22;2314;48.272;11.562;2023-07-30T02:24:08;16.90;99.90
4604;DHT22;2314;48.272;11.562;2023-07-30T02:27:35;16.80;99.90
4604;DHT22;2314;48.272;11.562;2023-07-30T02:31:01;16.80;99.90
4604;DHT22;2314;48.272;11.562;2023-07-30T02:34:26;16.80;99.90
4604;DHT22;2314;48.272;11.562;2023-07-30T02:37:51;16.70;99.90
4604;DHT22;2314;48.272;11.562;2023-07-30T02:41:17;16.70;99.90
4604;DHT22;2314;48.272;11.562;2023-07-30T02:44:44;16.60;99.90
4604;DHT22;2314;48.272;11.562;2023-07-30T02:48:09;16.50;99.90
4604;DHT22;2314;48.272;11.562;2023-07-30T02:51:35;16.40;99.90
4604;DHT22;2314;48.272;11.562;2023-07-30T02:55:00;16.40;99.90
4604;DHT22;2314;48.272;11.562;2023-07-30T02:58:26;16.30;99.90
4604;DHT22;2314;48.272;11.562;2023-07-30T03:01:52;16.30;99.90
4604;DHT22;2314;48.272;11.562;2023-07-30T03:05:18;16.30;99.90
4604;DHT22;2314;48.272;11.562;2023-07-30T03:08:43;16.30;99.90
4604;DHT22;2314;48.272;11.562;2023-07-30T03:12:09;16.30;99.90
4604;DHT22;2314;48.272;11.562;2023-07-30T03:15:34;16.30;99.90
4604;DHT22;2314;48.272;11.562;2023-07-30T03:19:01;16.30;99.90
4604;DHT22;2314;48.272;11.562;2023-07-30T03:22:26;16.30;99.90
4604;DHT22;2314;48.272;11.562;2023-07-30T03:25:52;16.30;99.90
4604;DHT22;2314;48.272;11.562;2023-07-30T03:29:18;16.30;99.90
4604;DHT22;2314;48.272;11.562;2023-07-30T03:32:43;16.30;99.90
4604;DHT22;2314;48.272;11.562;2023-07-30T03:36:13;16.20;99.90
4604;DHT22;2314;48.272;11.562;2023-07-30T03:39:38;16.20;99.90
4604;DHT22;2314;48.272;11.562;2023-07-30T03:43:03;16.10;99.90
4604;DHT22;2314;48.272;11.562;2023-07-30T03:46:29;16.10;99.90
4604;DHT22;2314;48.272;11.562;2023-07-30T03:49:54;16.10;99.90
4604;DHT22;2314;48.272;11.562;2023-07-30T03:53:22;16.10;99.90
4604;DHT22;2314;48.272;11.562;2023-07-30T03:56:47;16.10;99.90
4604;DHT22;2314;48.272;11.562;2023-07-30T04:00:13;16.10;99.90
4604;DHT22;2314;48.272;11.562;2023-07-30T04:03:38;16.10;99.90
4604;DHT22;2314;48.272;11.562;2023-07-30T04:07:04;16.20;99.90
4604;DHT22;2314;48.272;11.562;2023-07-30T04:10:31;16.10;99.90
4604;DHT22;2314;48.272;11.562;2023-07-30T04:13:56;16.10;99.90
4604;DHT22;2314;48.272;11.562;2023-07-30T04:17:22;16.10;99.90
4604;DHT22;2314;48.272;11.562;2023-07-30T04:20:48;16.10;99.90
4604;DHT22;2314;48.272;11.562;2023-07-30T04:24:13;16.10;99.90
4604;DHT22;2314;48.272;11.562;2023-07-30T04:27:40;16.10;99.90
4604;DHT22;2314;48.272;11.562;2023-07-30T04:31:06;16.10;99.90
4604;DHT22;2314;48.272;11.562;2023-07-30T04:34:32;16.10;99.90
4604;DHT22;2314;48.272;11.562;2023-07-30T04:37:58;16.10;99.90
4604;DHT22;2314;48.272;11.562;2023-07-30T04:41:23;16.10;99.90
4604;DHT22;2314;48.272;11.562;2023-07-30T04:44:50;16.10;99.90
4604;DHT22;2314;48.272;11.562;2023-07-30T04:48:16;16.10;99.90
4604;DHT22;2314;48.272;11.562;2023-07-30T04:51:41;16.20;99.90
4604;DHT22;2314;48.272;11.562;2023-07-30T04:55:07;16.20;99.90
4604;DHT22;2314;48.272;11.562;2023-07-30T04:58:33;16.30;99.90
4604;DHT22;2314;48.272;11.562;2023-07-30T05:01:01;16.40;99.90
4604;DHT22;2314;48.272;11.562;2023-07-30T05:03:28;16.50;99.90
4604;DHT22;2314;48.272;11.562;2023-07-30T05:05:55;16.50;99.90
4604;DHT22;2314;48.272;11.562;2023-07-30T05:08:22;16.50;99.90
4604;DHT22;2314;48.272;11.562;2023-07-30T05:10:49;16.50;99.90
4604;DHT22;2314;48.272;11.562;2023-07-30T05:13:16;16.60;99.90
4604;DHT22;2314;48.272;11.562;2023-07-30T05:15:43;16.60;99.90
4604;DHT22;2314;48.272;11.562;2023-07-30T05:18:12;16.60;99.90
4604;DHT22;2314;48.272;11.562;2023-07-30T05:20:40;16.60;99.90
4604;DHT22;2314;48.272;11.562;2023-07-30T05:23:07;16.60;99.90
4604;DHT22;2314;48.272;11.562;2023-07-30T05:25:35;16.60;99.90
4604;DHT22;2314;48.272;11.562;2023-07-30T05:28:02;16.60;99.90
4604;DHT22;2314;48.272;11.562;2023-07-30T05:30:29;16.60;99.90
4604;DHT22;2314;48.272;11.562;2023-07-30T05:32:56;16.60;99.90
4604;DHT22;2314;48.272;11.562;2023-07-30T05:35:24;16.60;99.90
4604;DHT22;2314;48.272;11.562;2023-07-30T05:37:51;16.60;99.90
4604;DHT22;2314;48.272;11.562;2023-07-30T05:40:20;16.60;99.90
4604;DHT22;2314;48.272;11.562;2023-07-30T05:42:47;16.70;99.90
4604;DHT22;2314;48.272;11.562;2023-07-30T05:45:15;16.70;99.90
4604;DHT22;2314;48.272;11.562;2023-07-30T05:47:42;16.80;99.90
4604;DHT22;2314;48.272;11.562;2023-07-30T05:50:09;16.90;99.90
4604;DHT22;2314;48.272;11.562;2023-07-30T05:52:38;17.00;99.90
4604;DHT22;2314;48.272;11.562;2023-07-30T05:55:06;17.00;99.90
4604;DHT22;2314;48.272;11.562;2023-07-30T05:57:34;16.90;99.90
4604;DHT22;2314;48.272;11.562;2023-07-30T06:00:01;16.90;99.90
4604;DHT22;2314;48.272;11.562;2023-07-30T06:02:29;16.90;99.90
4604;DHT22;2314;48.272;11.562;2023-07-30T06:04:56;16.90;99.90
4604;DHT22;2314;48.272;11.562;2023-07-30T06:07:26;17.00;99.90
4604;DHT22;2314;48.272;11.562;2023-07-30T06:09:55;17.00;99.90
4604;DHT22;2314;48.272;11.562;2023-07-30T06:12:22;17.00;99.90
4604;DHT22;2314;48.272;11.562;2023-07-30T06:14:49;17.10;99.90
4604;DHT22;2314;48.272;11.562;2023-07-30T06:17:16;17.10;99.90
4604;DHT22;2314;48.272;11.562;2023-07-30T06:19:43;17.10;99.90
4604;DHT22;2314;48.272;11.562;2023-07-30T06:22:10;17.20;99.90
4604;DHT22;2314;48.272;11.562;2023-07-30T06:24:37;17.20;99.90
4604;DHT22;2314;48.272;11.562;2023-07-30T06:27:06;17.30;99.90
4604;DHT22;2314;48.272;11.562;2023-07-30T06:29:35;17.30;99.90
4604;DHT22;2314;48.272;11.562;2023-07-30T06:32:02;17.30;99.90
4604;DHT22;2314;48.272;11.562;2023-07-30T06:34:29;17.40;99.90
4604;DHT22;2314;48.272;11.562;2023-07-30T06:36:56;17.50;99.90
4604;DHT22;2314;48.272;11.562;2023-07-30T06:39:23;17.50;99.90
4604;DHT22;2314;48.272;11.562;2023-07-30T06:41:50;17.60;99.90
4604;DHT22;2314;48.272;11.562;2023-07-30T06:44:18;17.60;99.90
4604;DHT22;2314;48.272;11.562;2023-07-30T06:46:45;17.70;99.90
4604;DHT22;2314;48.272;11.562;2023-07-30T06:49:13;17.70;99.90
4604;DHT22;2314;48.272;11.562;2023-07-30T06:51:40;17.70;99.90
4604;DHT22;2314;48.272;11.562;2023-07-30T06:54:07;17.80;99.90
4604;DHT22;2314;48.272;11.562;2023-07-30T06:56:34;17.80;99.90
4604;DHT22;2314;48.272;11.562;2023-07-30T06:59:02;17.90;99.90
4604;DHT22;2314;48.272;11.562;2023-07-30T07:01:31;18.00;99.90
4604;DHT22;2314;48.272;11.562;2023-07-30T07:03:57;18.10;99.90
4604;DHT22;2314;48.272;11.562;2023-07-30T07:06:25;18.10;99.90
4604;DHT22;2314;48.272;11.562;2023-07-30T07:08:51;18.20;99.90
4604;DHT22;2314;48.272;11.562;2023-07-30T07:11:19;18.20;99.90
4604;DHT22;2314;48.272;11.562;2023-07-30T07:13:46;18.20;99.90
4604;DHT22;2314;48.272;11.562;2023-07-30T07:16:13;18.40;99.90
4604;DHT22;2314;48.272;11.562;2023-07-30T07:18:41;18.40;99.90
4604;DHT22;2314;48.272;11.562;2023-07-30T07:21:09;18.50;99.90
4604;DHT22;2314;48.272;11.562;2023-07-30T07:23:36;18.50;99.90
4604;DHT22;2314;48.272;11.562;2023-07-30T07:26:04;18.70;99.90
4604;DHT22;2314;48.272;11.562;2023-07-30T07:28:32;18.80;99.90
4604;DHT22;2314;48.272;11.562;2023-07-30T07:30:59;19.00;99.90
4604;DHT22;2314;48.272;11.562;2023-07-30T07:33:27;19.10;99.90
4604;DHT22;2314;48.272;11.562;2023-07-30T07:36:04;19.20;99.90
4604;DHT22;2314;48.272;11.562;2023-07-30T07:38:31;19.30;99.90
4604;DHT22;2314;48.272;11.562;2023-07-30T07:40:59;19.50;99.90
4604;DHT22;2314;48.272;11.562;2023-07-30T07:43:26;19.70;99.90
4604;DHT22;2314;48.272;11.562;2023-07-30T07:45:54;19.90;99.90
4604;DHT22;2314;48.272;11.562;2023-07-30T07:48:21;20.00;99.90
4604;DHT22;2314;48.272;11.562;2023-07-30T07:50:48;20.00;99.90
4604;DHT22;2314;48.272;11.562;2023-07-30T07:53:17;20.00;99.90
4604;DHT22;2314;48.272;11.562;2023-07-30T07:55:44;20.10;99.90
4604;DHT22;2314;48.272;11.562;2023-07-30T07:58:11;20.30;99.90
4604;DHT22;2314;48.272;11.562;2023-07-30T08:00:38;20.30;99.90
4604;DHT22;2314;48.272;11.562;2023-07-30T08:03:05;20.30;99.90
4604;DHT22;2314;48.272;11.562;2023-07-30T08:05:35;20.20;99.90
4604;DHT22;2314;48.272;11.562;2023-07-30T08:08:06;20.30;99.90
4604;DHT22;2314;48.272;11.562;2023-07-30T08:10:38;20.30;99.90
4604;DHT22;2314;48.272;11.562;2023-07-30T08:13:09;20.20;99.90
4604;DHT22;2314;48.272;11.562;2023-07-30T08:15:36;20.10;99.90
4604;DHT22;2314;48.272;11.562;2023-07-30T08:18:03;20.00;99.90
4604;DHT22;2314;48.272;11.562;2023-07-30T08:20:30;20.00;99.90
4604;DHT22;2314;48.272;11.562;2023-07-30T08:22:58;20.00;99.90
4604;DHT22;2314;48.272;11.562;2023-07-30T08:25:25;20.10;99.90
4604;DHT22;2314;48.272;11.562;2023-07-30T08:27:53;20.00;99.90
4604;DHT22;2314;48.272;11.562;2023-07-30T08:30:20;20.00;99.90
4604;DHT22;2314;48.272;11.562;2023-07-30T08:32:47;20.30;99.90
4604;DHT22;2314;48.272;11.562;2023-07-30T08:35:14;20.30;99.90
4604;DHT22;2314;48.272;11.562;2023-07-30T08:37:44;20.30;99.90
4604;DHT22;2314;48.272;11.562;2023-07-30T08:40:12;20.30;99.90
4604;DHT22;2314;48.272;11.562;2023-07-30T08:42:39;20.40;99.90
4604;DHT22;2314;48.272;11.562;2023-07-30T08:45:11;20.70;99.90
4604;DHT22;2314;48.272;11.562;2023-07-30T08:47:40;21.60;99.90
4604;DHT22;2314;48.272;11.562;2023-07-30T08:50:08;22.30;99.90
4604;DHT22;2314;48.272;11.562;2023-07-30T08:52:37;22.70;99.90
4604;DHT22;2314;48.272;11.562;2023-07-30T08:55:05;22.60;99.90
4604;DHT22;2314;48.272;11.562;2023-07-30T08:57:33;22.10;99.90
4604;DHT22;2314;48.272;11.562;2023-07-30T09:00:02;21.80;99.90
4604;DHT22;2314;48.272;11.562;2023-07-30T09:02:34;22.40;99.90
4604;DHT22;2314;48.272;11.562;2023-07-30T09:05:05;23.50;99.90
4604;DHT22;2314;48.272;11.562;2023-07-30T09:07:33;24.50;99.90
4604;DHT22;2314;48.272;11.562;2023-07-30T09:10:00;25.50;99.90
4604;DHT22;2314;48.272;11.562;2023-07-30T09:12:29;26.00;99.90
4604;DHT22;2314;48.272;11.562;2023-07-30T09:14:57;26.10;99.90
4604;DHT22;2314;48.272;11.562;2023-07-30T09:17:24;25.50;99.90
4604;DHT22;2314;48.272;11.562;2023-07-30T09:19:53;25.00;99.90
4604;DHT22;2314;48.272;11.562;2023-07-30T09:22:24;25.20;99.90
4604;DHT22;2314;48.272;11.562;2023-07-30T09:24:52;25.80;99.90
4604;DHT22;2314;48.272;11.562;2023-07-30T09:27:21;26.50;99.90
4604;DHT22;2314;48.272;11.562;2023-07-30T09:29:51;26.80;99.90
4604;DHT22;2314;48.272;11.562;2023-07-30T09:32:19;27.20;99.90
4604;DHT22;2314;48.272;11.562;2023-07-30T09:34:46;27.20;99.90
4604;DHT22;2314;48.272;11.562;2023-07-30T09:37:15;26.90;99.90
4604;DHT22;2314;48.272;11.562;2023-07-30T09:39:43;27.30;99.90
4604;DHT22;2314;48.272;11.562;2023-07-30T09:42:10;27.30;99.90
4604;DHT22;2314;48.272;11.562;2023-07-30T09:44:37;26.80;99.90
4604;DHT22;2314;48.272;11.562;2023-07-30T09:47:09;27.10;99.90
4604;DHT22;2314;48.272;11.562;2023-07-30T09:49:36;27.30;99.90
4604;DHT22;2314;48.272;11.562;2023-07-30T09:52:04;27.10;99.90
4604;DHT22;2314;48.272;11.562;2023-07-30T09:54:33;26.60;99.90
4604;DHT22;2314;48.272;11.562;2023-07-30T09:57:01;26.00;99.90
4604;DHT22;2314;48.272;11.562;2023-07-30T09:59:29;25.50;99.90
4604;DHT22;2314;48.272;11.562;2023-07-30T10:01:57;25.20;99.90
4604;DHT22;2314;48.272;11.562;2023-07-30T10:04:26;25.00;99.90
4604;DHT22;2314;48.272;11.562;2023-07-30T10:06:56;24.60;99.90
4604;DHT22;2314;48.272;11.562;2023-07-30T10:09:28;25.00;99.90
4604;DHT22;2314;48.272;11.562;2023-07-30T10:11:58;25.30;99.90
4604;DHT22;2314;48.272;11.562;2023-07-30T10:14:26;25.10;99.90
4604;DHT22;2314;48.272;11.562;2023-07-30T10:16:54;24.60;99.90
4604;DHT22;2314;48.272;11.562;2023-07-30T10:19:23;24.60;99.90
4604;DHT22;2314;48.272;11.562;2023-07-30T10:21:53;24.80;99.90
4604;DHT22;2314;48.272;11.562;2023-07-30T10:24:20;24.70;99.90
4604;DHT22;2314;48.272;11.562;2023-07-30T10:26:47;24.30;99.90
4604;DHT22;2314;48.272;11.562;2023-07-30T10:29:17;23.70;99.90
4604;DHT22;2314;48.272;11.562;2023-07-30T10:31:49;23.40;99.90
4604;DHT22;2314;48.272;11.562;2023-07-30T10:34:18;23.10;99.90
4604;DHT22;2314;48.272;11.562;2023-07-30T10:36:47;23.00;99.90
4604;DHT22;2314;48.272;11.562;2023-07-30T10:39:16;23.30;99.90
4604;DHT22;2314;48.272;11.562;2023-07-30T10:41:57;23.30;99.90
4604;DHT22;2314;48.272;11.562;2023-07-30T10:44:27;23.70;99.90
4604;DHT22;2314;48.272;11.562;2023-07-30T10:46:59;24.60;99.90
4604;DHT22;2314;48.272;11.562;2023-07-30T10:49:26;25.20;99.90
4604;DHT22;2314;48.272;11.562;2023-07-30T10:51:55;25.70;99.90
4604;DHT22;2314;48.272;11.562;2023-07-30T10:54:23;26.20;99.90
4604;DHT22;2314;48.272;11.562;2023-07-30T10:56:51;26.40;99.90
4604;DHT22;2314;48.272;11.562;2023-07-30T10:59:19;26.50;99.90
4604;DHT22;2314;48.272;11.562;2023-07-30T11:01:47;26.30;99.90
4604;DHT22;2314;48.272;11.562;2023-07-30T11:04:16;26.10;99.90
4604;DHT22;2314;48.272;11.562;2023-07-30T11:06:45;25.80;99.90
4604;DHT22;2314;48.272;11.562;2023-07-30T11:09:19;25.40;99.90
4604;DHT22;2314;48.272;11.562;2023-07-30T11:11:47;25.20;99.90
4604;DHT22;2314;48.272;11.562;2023-07-30T11:14:17;25.00;99.90
4604;DHT22;2314;48.272;11.562;2023-07-30T11:16:51;24.80;99.90
4604;DHT22;2314;48.272;11.562;2023-07-30T11:19:19;24.60;99.90
4604;DHT22;2314;48.272;11.562;2023-07-30T11:21:47;24.80;99.90
4604;DHT22;2314;48.272;11.562;2023-07-30T11:24:15;24.60;99.90
4604;DHT22;2314;48.272;11.562;2023-07-30T11:26:42;24.40;99.90
4604;DHT22;2314;48.272;11.562;2023-07-30T11:29:15;24.00;99.90
4604;DHT22;2314;48.272;11.562;2023-07-30T11:31:43;23.20;99.90
4604;DHT22;2314;48.272;11.562;2023-07-30T11:34:12;22.70;99.90
4604;DHT22;2314;48.272;11.562;2023-07-30T11:36:40;22.50;99.90
4604;DHT22;2314;48.272;11.562;2023-07-30T11:39:09;22.50;99.90
4604;DHT22;2314;48.272;11.562;2023-07-30T11:41:37;22.60;99.90
4604;DHT22;2314;48.272;11.562;2023-07-30T11:44:04;22.60;99.90
4604;DHT22;2314;48.272;11.562;2023-07-30T11:46:31;22.60;99.90
4604;DHT22;2314;48.272;11.562;2023-07-30T11:49:13;22.40;99.90
4604;DHT22;2314;48.272;11.562;2023-07-30T11:51:42;22.30;99.90
4604;DHT22;2314;48.272;11.562;2023-07-30T11:54:19;21.50;99.90
4604;DHT22;2314;48.272;11.562;2023-07-30T11:56:54;20.90;99.90
4604;DHT22;2314;48.272;11.562;2023-07-30T11:59:21;20.80;99.90
4604;DHT22;2314;48.272;11.562;2023-07-30T12:01:48;20.80;99.90
4604;DHT22;2314;48.272;11.562;2023-07-30T12:04:17;20.70;99.90
4604;DHT22;2314;48.272;11.562;2023-07-30T12:06:46;20.70;99.90
4604;DHT22;2314;48.272;11.562;2023-07-30T12:09:14;20.80;99.90
4604;DHT22;2314;48.272;11.562;2023-07-30T12:11:46;21.30;99.90
4604;DHT22;2314;48.272;11.562;2023-07-30T12:14:13;22.10;99.90
4604;DHT22;2314;48.272;11.562;2023-07-30T12:16:40;22.70;99.90
4604;DHT22;2314;48.272;11.562;2023-07-30T12:19:08;23.00;99.90
4604;DHT22;2314;48.272;11.562;2023-07-30T12:21:36;22.80;99.90
4604;DHT22;2314;48.272;11.562;2023-07-30T12:24:03;23.00;99.90
4604;DHT22;2314;48.272;11.562;2023-07-30T12:26:31;23.10;99.90
4604;DHT22;2314;48.272;11.562;2023-07-30T12:28:58;22.80;99.90
4604;DHT22;2314;48.272;11.562;2023-07-30T12:31:25;22.90;99.90
4604;DHT22;2314;48.272;11.562;2023-07-30T12:33:52;23.30;99.90
4604;DHT22;2314;48.272;11.562;2023-07-30T12:36:19;23.40;99.90
4604;DHT22;2314;48.272;11.562;2023-07-30T12:38:47;23.60;99.90
4604;DHT22;2314;48.272;11.562;2023-07-30T12:41:14;23.80;99.90
4604;DHT22;2314;48.272;11.562;2023-07-30T12:43:42;24.40;99.90
4604;DHT22;2314;48.272;11.562;2023-07-30T12:46:09;24.50;99.90
4604;DHT22;2314;48.272;11.562;2023-07-30T12:48:36;24.50;99.90
4604;DHT22;2314;48.272;11.562;2023-07-30T12:51:03;24.50;99.90
4604;DHT22;2314;48.272;11.562;2023-07-30T12:53:30;24.30;99.90
4604;DHT22;2314;48.272;11.562;2023-07-30T12:55:59;23.70;99.90
4604;DHT22;2314;48.272;11.562;2023-07-30T12:58:26;23.60;99.90
4604;DHT22;2314;48.272;11.562;2023-07-30T13:00:53;23.30;99.90
4604;DHT22;2314;48.272;11.562;2023-07-30T13:03:20;23.60;99.90
4604;DHT22;2314;48.272;11.562;2023-07-30T13:05:47;24.00;99.90
4604;DHT22;2314;48.272;11.562;2023-07-30T13:08:14;24.00;99.90
4604;DHT22;2314;48.272;11.562;2023-07-30T13:10:41;23.70;99.90
4604;DHT22;2314;48.272;11.562;2023-07-30T13:13:10;23.30;99.90
4604;DHT22;2314;48.272;11.562;2023-07-30T13:15:37;23.10;99.90
4604;DHT22;2314;48.272;11.562;2023-07-30T13:18:04;22.90;99.90
4604;DHT22;2314;48.272;11.562;2023-07-30T13:20:31;22.70;99.90
4604;DHT22;2314;48.272;11.562;2023-07-30T13:22:58;22.50;99.90
4604;DHT22;2314;48.272;11.562;2023-07-30T13:25:25;22.40;99.90
4604;DHT22;2314;48.272;11.562;2023-07-30T13:27:52;22.30;99.90
4604;DHT22;2314;48.272;11.562;2023-07-30T13:30:20;22.20;99.90
4604;DHT22;2314;48.272;11.562;2023-07-30T13:32:47;22.20;99.90
4604;DHT22;2314;48.272;11.562;2023-07-30T13:35:14;22.10;99.90
4604;DHT22;2314;48.272;11.562;2023-07-30T13:37:42;21.90;99.90
4604;DHT22;2314;48.272;11.562;2023-07-30T13:40:10;21.30;99.90
4604;DHT22;2314;48.272;11.562;2023-07-30T13:42:37;20.60;99.90
4604;DHT22;2314;48.272;11.562;2023-07-30T13:45:05;20.00;99.90
4604;DHT22;2314;48.272;11.562;2023-07-30T13:47:34;19.80;99.90
4604;DHT22;2314;48.272;11.562;2023-07-30T13:50:01;19.80;99.90
4604;DHT22;2314;48.272;11.562;2023-07-30T13:52:29;20.20;99.90
4604;DHT22;2314;48.272;11.562;2023-07-30T13:54:56;20.70;99.90
4604;DHT22;2314;48.272;11.562;2023-07-30T13:57:24;21.10;99.90
4604;DHT22;2314;48.272;11.562;2023-07-30T13:59:52;21.20;99.90
4604;DHT22;2314;48.272;11.562;2023-07-30T14:02:19;21.50;99.90
4604;DHT22;2314;48.272;11.562;2023-07-30T14:04:47;21.90;99.90
4604;DHT22;2314;48.272;11.562;2023-07-30T14:07:14;22.20;99.90
4604;DHT22;2314;48.272;11.562;2023-07-30T14:09:41;22.40;99.90
4604;DHT22;2314;48.272;11.562;2023-07-30T14:12:08;22.70;99.90
4604;DHT22;2314;48.272;11.562;2023-07-30T14:14:36;22.90;99.90
4604;DHT22;2314;48.272;11.562;2023-07-30T14:17:03;22.90;99.90
4604;DHT22;2314;48.272;11.562;2023-07-30T14:19:32;23.20;99.90
4604;DHT22;2314;48.272;11.562;2023-07-30T14:22:00;23.50;99.90
4604;DHT22;2314;48.272;11.562;2023-07-30T14:24:27;23.60;99.90
4604;DHT22;2314;48.272;11.562;2023-07-30T14:26:55;23.70;99.90
4604;DHT22;2314;48.272;11.562;2023-07-30T14:29:22;23.70;99.90
4604;DHT22;2314;48.272;11.562;2023-07-30T14:31:49;23.90;99.90
4604;DHT22;2314;48.272;11.562;2023-07-30T14:34:16;23.90;99.90
4604;DHT22;2314;48.272;11.562;2023-07-30T14:37:43;24.00;99.90
4604;DHT22;2314;48.272;11.562;2023-07-30T14:41:08;24.20;99.90
4604;DHT22;2314;48.272;11.562;2023-07-30T14:44:34;24.20;99.90
4604;DHT22;2314;48.272;11.562;2023-07-30T14:48:00;23.90;99.90
4604;DHT22;2314;48.272;11.562;2023-07-30T14:51:25;23.80;99.90
4604;DHT22;2314;48.272;11.562;2023-07-30T14:54:52;23.90;99.90
4604;DHT22;2314;48.272;11.562;2023-07-30T14:58:18;24.00;99.90
4604;DHT22;2314;48.272;11.562;2023-07-30T15:01:44;24.10;99.90
4604;DHT22;2314;48.272;11.562;2023-07-30T15:05:09;24.20;99.90
4604;DHT22;2314;48.272;11.562;2023-07-30T15:08:35;24.50;99.90
4604;DHT22;2314;48.272;11.562;2023-07-30T15:12:04;24.50;99.40
4604;DHT22;2314;48.272;11.562;2023-07-30T15:15:29;24.20;99.10
4604;DHT22;2314;48.272;11.562;2023-07-30T15:18:55;23.90;98.90
4604;DHT22;2314;48.272;11.562;2023-07-30T15:22:21;23.70;99.10
4604;DHT22;2314;48.272;11.562;2023-07-30T15:25:46;23.80;98.70
4604;DHT22;2314;48.272;11.562;2023-07-30T15:29:13;23.90;98.10
4604;DHT22;2314;48.272;11.562;2023-07-30T15:32:41;24.10;99.30
4604;DHT22;2314;48.272;11.562;2023-07-30T15:36:07;24.20;98.00
4604;DHT22;2314;48.272;11.562;2023-07-30T15:39:32;24.20;99.00
4604;DHT22;2314;48.272;11.562;2023-07-30T15:42:58;24.30;98.10
4604;DHT22;2314;48.272;11.562;2023-07-30T15:46:25;24.10;97.80
4604;DHT22;2314;48.272;11.562;2023-07-30T15:49:50;24.10;98.50
4604;DHT22;2314;48.272;11.562;2023-07-30T15:53:16;24.10;97.90
4604;DHT22;2314;48.272;11.562;2023-07-30T15:56:42;24.30;99.30
4604;DHT22;2314;48.272;11.562;2023-07-30T16:00:08;24.40;99.90
4604;DHT22;2314;48.272;11.562;2023-07-30T16:03:36;24.30;99.90
4604;DHT22;2314;48.272;11.562;2023-07-30T16:07:03;24.10;99.90
4604;DHT22;2314;48.272;11.562;2023-07-30T16:10:30;23.90;99.90
4604;DHT22;2314;48.272;11.562;2023-07-30T16:13:55;23.70;99.90
4604;DHT22;2314;48.272;11.562;2023-07-30T16:17:21;23.60;99.90
4604;DHT22;2314;48.272;11.562;2023-07-30T16:20:47;23.60;99.90
4604;DHT22;2314;48.272;11.562;2023-07-30T16:24:14;23.60;99.90
4604;DHT22;2314;48.272;11.562;2023-07-30T16:27:39;23.70;99.90
4604;DHT22;2314;48.272;11.562;2023-07-30T16:31:05;23.70;99.90
4604;DHT22;2314;48.272;11.562;2023-07-30T16:34:31;23.80;99.90
4604;DHT22;2314;48.272;11.562;2023-07-30T16:37:58;23.80;99.90
4604;DHT22;2314;48.272;11.562;2023-07-30T16:41:24;23.60;99.90
4604;DHT22;2314;48.272;11.562;2023-07-30T16:44:49;23.30;99.90
4604;DHT22;2314;48.272;11.562;2023-07-30T16:48:15;23.10;99.90
4604;DHT22;2314;48.272;11.562;2023-07-30T16:51:41;23.10;99.90
4604;DHT22;2314;48.272;11.562;2023-07-30T16:55:08;23.00;99.90
4604;DHT22;2314;48.272;11.562;2023-07-30T16:58:37;23.00;99.90
4604;DHT22;2314;48.272;11.562;2023-07-30T17:02:03;23.10;99.90
4604;DHT22;2314;48.272;11.562;2023-07-30T17:05:30;23.10;99.90
4604;DHT22;2314;48.272;11.562;2023-07-30T17:08:56;22.90;99.90
4604;DHT22;2314;48.272;11.562;2023-07-30T17:12:23;22.70;99.90
4604;DHT22;2314;48.272;11.562;2023-07-30T17:15:48;22.50;99.90
4604;DHT22;2314;48.272;11.562;2023-07-30T17:19:14;22.20;99.90
4604;DHT22;2314;48.272;11.562;2023-07-30T17:22:40;22.10;99.90
4604;DHT22;2314;48.272;11.562;2023-07-30T17:26:05;22.00;99.90
4604;DHT22;2314;48.272;11.562;2023-07-30T17:29:33;21.90;99.90
4604;DHT22;2314;48.272;11.562;2023-07-30T17:32:58;21.70;99.90